createdAt,value
2022-12-23T00:02:09.022Z,99413.81
2022-12-23T00:04:56.407Z,99407.56
2022-12-23T00:07:45.081Z,99413.41
2022-12-23T00:10:33.010Z,99409.81
2022-12-23T00:13:38.064Z,99402.72
2022-12-23T00:16:25.495Z,99397.50
2022-12-23T00:19:14.451Z,99409.63
2022-12-23T00:22:01.898Z,99403.13
2022-12-23T00:24:50.087Z,99404.41
2022-12-23T00:27:37.909Z,99400.63
2022-12-23T00:30:25.639Z,99396.84
2022-12-23T00:33:13.150Z,99403.78
2022-12-23T00:36:02.753Z,99405.22
2022-12-23T00:39:08.291Z,99404.59
2022-12-23T00:42:13.102Z,99407.31
2022-12-23T00:45:16.092Z,99403.13
2022-12-23T00:48:20.821Z,99406.47
2022-12-23T00:51:09.783Z,99402.94
2022-12-23T00:53:57.325Z,99405.41
2022-12-23T00:56:44.983Z,99398.56
2022-12-23T00:59:32.546Z,99402.50
2022-12-23T01:02:37.606Z,99395.19
2022-12-23T01:05:40.692Z,99410.66
2022-12-23T01:08:30.472Z,99409.84
2022-12-23T01:11:18.098Z,99415.03
2022-12-23T01:14:05.764Z,99411.50
2022-12-23T01:16:53.427Z,99400.81
2022-12-23T01:19:41.377Z,99424.25
2022-12-23T01:22:28.982Z,99419.22
2022-12-23T01:25:18.251Z,99420.06
2022-12-23T01:28:05.951Z,99419.66
2022-12-23T01:30:53.738Z,99409.59
2022-12-23T01:33:41.268Z,99415.25
2022-12-23T01:36:29.072Z,99412.53
2022-12-23T01:39:16.714Z,99419.66
2022-12-23T01:42:25.377Z,99424.03
2022-12-23T01:45:18.471Z,99416.50
2022-12-23T01:48:10.475Z,99423.81
2022-12-23T01:51:04.354Z,99423.81
2022-12-23T01:53:56.203Z,99437.19
2022-12-23T01:56:43.662Z,99432.16
2022-12-23T01:59:50.312Z,99433.44
2022-12-23T02:02:57.495Z,99415.03
2022-12-23T02:05:47.113Z,99433.84
2022-12-23T02:08:52.302Z,99433.44
2022-12-23T02:11:58.304Z,99434.47
2022-12-23T02:15:19.699Z,99433.84
2022-12-23T02:18:35.697Z,99430.50
2022-12-23T02:21:39.862Z,99433.84
2022-12-23T02:25:18.398Z,99438.88
2022-12-23T02:28:30.118Z,99442.41
2022-12-23T02:31:26.643Z,99446.78
2022-12-23T02:34:20.710Z,99443.25
2022-12-23T02:37:16.827Z,99447.03
2022-12-23T02:40:11.557Z,99451.41
2022-12-23T02:43:05.403Z,99446.81
2022-12-23T02:46:00.202Z,99451.00
2022-12-23T02:48:55.764Z,99449.75
2022-12-23T02:51:47.179Z,99433.22
2022-12-23T02:54:40.380Z,99456.22
2022-12-23T02:57:33.848Z,99451.63
2022-12-23T03:00:22.650Z,99454.78
2022-12-23T03:03:10.362Z,99445.56
2022-12-23T03:05:59.726Z,99453.94
2022-12-23T03:08:47.663Z,99454.56
2022-12-23T03:11:46.277Z,99457.28
2022-12-23T03:14:58.364Z,99460.81
2022-12-23T03:17:59.543Z,99470.22
2022-12-23T03:20:55.093Z,99457.28
2022-12-23T03:23:51.980Z,99474.41
2022-12-23T03:26:50.991Z,99475.25
2022-12-23T03:29:44.207Z,99472.09
2022-12-23T03:32:38.484Z,99485.50
2022-12-23T03:35:32.543Z,99486.56
2022-12-23T03:38:20.569Z,99497.22
2022-12-23T03:41:15.403Z,99485.28
2022-12-23T03:44:08.266Z,99493.66
2022-12-23T03:47:00.521Z,99498.28
2022-12-23T03:49:53.666Z,99488.66
2022-12-23T03:52:47.329Z,99500.78
2022-12-23T03:55:38.096Z,99496.59
2022-12-23T03:58:36.770Z,99498.47
2022-12-23T04:01:35.289Z,99503.88
2022-12-23T04:04:27.443Z,99503.06
2022-12-23T04:07:18.997Z,99517.50
2022-12-23T04:10:09.401Z,99513.34
2022-12-23T04:12:57.186Z,99514.16
2022-12-23T04:15:46.517Z,99518.34
2022-12-23T04:18:34.281Z,99529.66
2022-12-23T04:21:21.469Z,99531.50
2022-12-23T04:24:09.153Z,99527.97
2022-12-23T04:26:56.408Z,99524.63
2022-12-23T04:29:44.092Z,99539.06
2022-12-23T04:32:33.361Z,99532.56
2022-12-23T04:35:21.407Z,99534.03
2022-12-23T04:38:12.158Z,99521.47
2022-12-23T04:41:00.330Z,99533.41
2022-12-23T04:43:52.771Z,99521.06
2022-12-23T04:46:40.928Z,99525.47
2022-12-23T04:49:30.141Z,99521.69
2022-12-23T04:52:17.369Z,99528.78
2022-12-23T04:55:05.089Z,99522.09
2022-12-23T04:57:52.329Z,99535.94
2022-12-23T05:00:40.273Z,99530.69
2022-12-23T05:03:27.725Z,99533.41
2022-12-23T05:06:16.478Z,99531.50
2022-12-23T05:09:04.059Z,99535.94
2022-12-23T05:11:51.856Z,99526.94
2022-12-23T05:14:39.249Z,99551.19
2022-12-23T05:17:27.010Z,99545.53
2022-12-23T05:20:14.730Z,99554.13
2022-12-23T05:23:04.071Z,99557.28
2022-12-23T05:25:53.312Z,99561.25
2022-12-23T05:28:40.938Z,99571.06
2022-12-23T05:31:28.439Z,99570.66
2022-12-23T05:34:16.327Z,99568.16
2022-12-23T05:37:03.695Z,99582.38
2022-12-23T05:39:54.826Z,99581.94
2022-12-23T05:42:42.596Z,99572.31
2022-12-23T05:45:30.329Z,99584.03
2022-12-23T05:48:18.768Z,99579.00
2022-12-23T05:51:06.830Z,99597.00
2022-12-23T05:53:54.102Z,99580.88
2022-12-23T05:56:42.984Z,99595.53
2022-12-23T05:59:31.490Z,99605.78
2022-12-23T06:02:22.337Z,99595.75
2022-12-23T06:05:11.347Z,99600.72
2022-12-23T06:07:58.985Z,99604.91
2022-12-23T06:10:46.143Z,99600.72
2022-12-23T06:13:35.070Z,99601.53
2022-12-23T06:16:22.501Z,99609.06
2022-12-23T06:19:11.381Z,99617.63
2022-12-23T06:21:59.075Z,99619.25
2022-12-23T06:24:46.535Z,99616.53
2022-12-23T06:27:33.987Z,99629.06
2022-12-23T06:30:22.764Z,99624.41
2022-12-23T06:33:12.443Z,99631.97
2022-12-23T06:35:59.986Z,99637.38
2022-12-23T06:38:47.487Z,99639.88
2022-12-23T06:41:35.110Z,99635.69
2022-12-23T06:44:22.315Z,99643.84
2022-12-23T06:47:11.628Z,99652.84
2022-12-23T06:49:59.395Z,99650.09
2022-12-23T06:52:46.975Z,99654.47
2022-12-23T06:55:34.549Z,99661.13
2022-12-23T06:58:22.308Z,99657.13
2022-12-23T07:01:10.303Z,99666.56
2022-12-23T07:03:59.624Z,99662.97
2022-12-23T07:06:46.714Z,99680.34
2022-12-23T07:09:35.197Z,99680.75
2022-12-23T07:12:22.423Z,99689.94
2022-12-23T07:15:10.843Z,99697.91
2022-12-23T07:17:58.446Z,99706.69
2022-12-23T07:20:47.101Z,99689.50
2022-12-23T07:23:34.545Z,99700.81
2022-12-23T07:26:22.133Z,99699.75
2022-12-23T07:29:09.645Z,99704.53
2022-12-23T07:31:57.197Z,99699.53
2022-12-23T07:34:44.970Z,99703.31
2022-12-23T07:37:33.897Z,99708.31
2022-12-23T07:40:21.803Z,99701.59
2022-12-23T07:43:09.199Z,99709.56
2022-12-23T07:46:00.355Z,99707.03
2022-12-23T07:48:48.857Z,99709.13
2022-12-23T07:51:36.371Z,99717.91
2022-12-23T07:54:25.305Z,99707.91
2022-12-23T07:57:13.925Z,99706.03
2022-12-23T08:00:01.245Z,99695.34
2022-12-23T08:02:49.270Z,99702.25
2022-12-23T08:05:37.136Z,99703.75
2022-12-23T08:08:24.569Z,99702.50
2022-12-23T08:11:14.959Z,99711.25
2022-12-23T08:14:02.714Z,99726.09
2022-12-23T08:16:50.428Z,99741.38
2022-12-23T08:19:38.984Z,99736.78
2022-12-23T08:22:26.799Z,99755.13
2022-12-23T08:25:14.535Z,99748.69
2022-12-23T08:28:03.610Z,99739.50
2022-12-23T08:30:51.087Z,99742.84
2022-12-23T08:33:40.026Z,99741.81
2022-12-23T08:36:30.384Z,99751.44
2022-12-23T08:39:19.169Z,99746.19
2022-12-23T08:42:07.113Z,99738.03
2022-12-23T08:44:56.086Z,99746.44
2022-12-23T08:47:43.504Z,99745.34
2022-12-23T08:50:31.349Z,99751.03
2022-12-23T08:53:18.843Z,99756.47
2022-12-23T08:56:08.334Z,99757.31
2022-12-23T08:58:56.987Z,99756.53
2022-12-23T09:01:46.226Z,99751.34
2022-12-23T09:04:34.024Z,99752.38
2022-12-23T09:07:21.556Z,99759.75
2022-12-23T09:10:10.198Z,99761.22
2022-12-23T09:12:58.253Z,99763.72
2022-12-23T09:15:46.081Z,99772.31
2022-12-23T09:18:35.979Z,99774.84
2022-12-23T09:21:25.104Z,99746.59
2022-12-23T09:24:12.776Z,99767.56
2022-12-23T09:27:00.150Z,99763.22
2022-12-23T09:29:47.439Z,99760.69
2022-12-23T09:32:35.068Z,99760.28
2022-12-23T09:35:23.875Z,99718.19
2022-12-23T09:38:12.146Z,99750.03
2022-12-23T09:41:04.653Z,99763.03
2022-12-23T09:43:59.031Z,99764.25
2022-12-23T09:46:52.921Z,99760.97
2022-12-23T09:49:48.638Z,99764.53
2022-12-23T09:52:44.477Z,99764.34
2022-12-23T09:55:41.676Z,99757.00
2022-12-23T09:58:33.776Z,99764.38
2022-12-23T10:01:33.810Z,99754.75
2022-12-23T10:04:41.007Z,99749.09
2022-12-23T10:07:36.711Z,99747.66
2022-12-23T10:10:34.996Z,99751.59
2022-12-23T10:13:29.866Z,99741.75
2022-12-23T10:16:20.782Z,99744.72
2022-12-23T10:19:16.365Z,99737.78
2022-12-23T10:22:06.452Z,99739.03
2022-12-23T10:24:57.026Z,99740.94
2022-12-23T10:27:46.439Z,99726.28
2022-12-23T10:31:10.886Z,99728.81
2022-12-23T10:33:52.606Z,99715.84
2022-12-23T10:36:50.083Z,99730.94
2022-12-23T10:39:44.916Z,99740.16
2022-12-23T10:42:38.915Z,99716.47
2022-12-23T10:45:45.042Z,99717.56
2022-12-23T10:48:48.367Z,99713.59
2022-12-23T10:51:46.757Z,99711.94
2022-12-23T10:54:37.024Z,99716.56
2022-12-23T10:57:26.175Z,99704.59
2022-12-23T11:00:19.812Z,99712.59
2022-12-23T11:03:18.411Z,99711.72
2022-12-23T11:06:09.207Z,99718.66
2022-12-23T11:08:58.037Z,99720.94
2022-12-23T11:11:57.319Z,99709.66
2022-12-23T11:14:53.177Z,99707.97
2022-12-23T11:17:40.968Z,99698.34
2022-12-23T11:20:31.407Z,99691.41
2022-12-23T11:23:26.904Z,99695.59
2022-12-23T11:26:20.023Z,99699.97
2022-12-23T11:29:11.392Z,99697.66
2022-12-23T11:31:59.711Z,99685.13
2022-12-23T11:34:49.638Z,99683.66
2022-12-23T11:37:43.407Z,99663.53
2022-12-23T11:40:33.970Z,99666.09
2022-12-23T11:43:24.587Z,99668.16
2022-12-23T11:46:17.482Z,99653.31
2022-12-23T11:49:16.584Z,99642.22
2022-12-23T11:52:13.582Z,99646.22
2022-12-23T11:55:04.511Z,99635.09
2022-12-23T11:57:53.148Z,99633.44
2022-12-23T12:00:44.174Z,99635.53
2022-12-23T12:03:36.239Z,99630.50
2022-12-23T12:06:25.077Z,99617.13
2022-12-23T12:09:15.324Z,99624.63
2022-12-23T12:12:09.108Z,99612.50
2022-12-23T12:14:59.053Z,99588.63
2022-12-23T12:17:52.544Z,99597.38
2022-12-23T12:20:44.738Z,99595.25
2022-12-23T12:23:41.898Z,99583.50
2022-12-23T12:26:32.627Z,99578.91
2022-12-23T12:29:29.137Z,99582.25
2022-12-23T12:32:22.727Z,99591.94
2022-12-23T12:35:16.509Z,99583.56
2022-12-23T12:38:13.250Z,99537.38
2022-12-23T12:41:08.666Z,99577.34
2022-12-23T12:44:05.692Z,99581.09
2022-12-23T12:47:00.146Z,99578.38
2022-12-23T12:49:53.378Z,99569.81
2022-12-23T12:52:43.420Z,99569.38
2022-12-23T12:55:33.964Z,99563.44
2022-12-23T12:58:23.757Z,99559.72
2022-12-23T13:01:30.712Z,99566.63
2022-12-23T13:05:02.781Z,99563.47
2022-12-23T13:08:06.859Z,99560.53
2022-12-23T13:11:01.996Z,99560.56
2022-12-23T13:13:57.430Z,99548.41
2022-12-23T13:16:53.084Z,99546.75
2022-12-23T13:19:49.515Z,99541.72
2022-12-23T13:22:38.784Z,99535.47
2022-12-23T13:25:33.225Z,99521.66
2022-12-23T13:28:32.545Z,99525.63
2022-12-23T13:31:34.995Z,99482.78
2022-12-23T13:34:34.095Z,99531.09
2022-12-23T13:37:32.316Z,99523.78
2022-12-23T13:40:38.202Z,99516.25
2022-12-23T13:43:27.854Z,99517.09
2022-12-23T13:46:28.270Z,99524.00
2022-12-23T13:49:26.215Z,99515.00
2022-12-23T13:52:17.588Z,99507.03
2022-12-23T13:55:15.917Z,99506.22
2022-12-23T13:58:12.320Z,99494.09
2022-12-23T14:01:21.122Z,99488.84
2022-12-23T14:04:37.067Z,99477.13
2022-12-23T14:07:25.250Z,99481.34
2022-12-23T14:10:21.865Z,99488.84
2022-12-23T14:13:16.949Z,99479.00
2022-12-23T14:16:24.343Z,99474.81
2022-12-23T14:19:42.644Z,99475.88
2022-12-23T14:22:41.850Z,99468.56
2022-12-23T14:25:51.935Z,99456.44
2022-12-23T14:28:55.723Z,99440.97
2022-12-23T14:31:46.192Z,99442.03
2022-12-23T14:34:36.424Z,99444.50
2022-12-23T14:37:35.966Z,99439.09
2022-12-23T14:41:00.783Z,99440.97
2022-12-23T14:43:56.243Z,99426.34
2022-12-23T14:46:59.672Z,99422.16
2022-12-23T14:49:49.776Z,99418.00
2022-12-23T14:53:01.510Z,99415.88
2022-12-23T14:55:51.064Z,99411.69
2022-12-23T14:58:56.076Z,99411.28
2022-12-23T15:01:50.109Z,99396.03
2022-12-23T15:04:49.127Z,99399.16
2022-12-23T15:07:39.462Z,99396.69
2022-12-23T15:10:29.191Z,99386.63
2022-12-23T15:13:19.028Z,99373.25
2022-12-23T15:16:08.801Z,99368.63
2022-12-23T15:19:00.535Z,99357.56
2022-12-23T15:21:54.465Z,99377.44
2022-12-23T15:24:48.278Z,99386.41
2022-12-23T15:27:38.475Z,99392.06
2022-12-23T15:30:27.948Z,99385.34
2022-12-23T15:34:00.219Z,99384.75
2022-12-23T15:36:32.447Z,99377.22
2022-12-23T15:39:22.425Z,99368.44
2022-12-23T15:42:23.049Z,99371.34
2022-12-23T15:45:33.790Z,99379.50
2022-12-23T15:48:26.337Z,99355.47
2022-12-23T15:51:30.551Z,99341.91
2022-12-23T15:54:30.720Z,99338.97
2022-12-23T15:57:22.121Z,99338.97
2022-12-23T16:00:20.561Z,99343.16
2022-12-23T16:03:20.588Z,99344.59
2022-12-23T16:06:11.617Z,99343.97
2022-12-23T16:09:02.724Z,99345.63
2022-12-23T16:11:57.798Z,99332.72
2022-12-23T16:14:54.056Z,99344.63
2022-12-23T16:17:41.686Z,99340.59
2022-12-23T16:20:29.520Z,99344.38
2022-12-23T16:23:18.714Z,99327.69
2022-12-23T16:26:06.612Z,99325.59
2022-12-23T16:28:59.664Z,99331.88
2022-12-23T16:31:55.837Z,99312.22
2022-12-23T16:34:51.505Z,99303.25
2022-12-23T16:37:38.957Z,99308.69
2022-12-23T16:40:26.671Z,99295.72
2022-12-23T16:43:14.592Z,99284.66
2022-12-23T16:46:04.364Z,99276.47
2022-12-23T16:48:55.509Z,99274.19
2022-12-23T16:51:43.604Z,99262.47
2022-12-23T16:54:31.239Z,99259.78
2022-12-23T16:57:18.697Z,99242.44
2022-12-23T17:00:07.970Z,99242.84
2022-12-23T17:02:57.297Z,99244.06
2022-12-23T17:05:45.975Z,99237.19
2022-12-23T17:08:33.583Z,99227.75
2022-12-23T17:11:26.255Z,99237.81
2022-12-23T17:14:17.315Z,99235.75
2022-12-23T17:17:14.371Z,99233.44
2022-12-23T17:20:03.543Z,99218.59
2022-12-23T17:22:54.302Z,99209.41
2022-12-23T17:25:41.739Z,99206.69
2022-12-23T17:28:32.432Z,99211.72
2022-12-23T17:31:26.509Z,99209.19
2022-12-23T17:34:17.414Z,99209.38
2022-12-23T17:37:14.126Z,99209.81
2022-12-23T17:40:01.808Z,99211.91
2022-12-23T17:42:49.590Z,99196.66
2022-12-23T17:45:37.550Z,99195.41
2022-12-23T17:48:31.114Z,99201.03
2022-12-23T17:51:20.839Z,99183.13
2022-12-23T17:54:21.841Z,99185.88
2022-12-23T17:57:19.166Z,99196.91
2022-12-23T18:00:08.634Z,99183.97
2022-12-23T18:02:59.284Z,99184.94
2022-12-23T18:05:46.795Z,99210.47
2022-12-23T18:08:34.368Z,99219.94
2022-12-23T18:11:28.840Z,99219.06
2022-12-23T18:14:19.464Z,99206.53
2022-12-23T18:17:07.333Z,99204.81
2022-12-23T18:19:55.046Z,99213.31
2022-12-23T18:22:42.803Z,99217.16
2022-12-23T18:25:30.625Z,99210.91
2022-12-23T18:28:19.511Z,99212.81
2022-12-23T18:31:07.025Z,99219.06
2022-12-23T18:33:54.642Z,99184.88
2022-12-23T18:36:42.483Z,99201.78
2022-12-23T18:39:30.097Z,99200.31
2022-12-23T18:42:19.135Z,99197.38
2022-12-23T18:45:26.101Z,99192.59
2022-12-23T18:48:13.664Z,99197.78
2022-12-23T18:51:01.502Z,99213.03
2022-12-23T18:53:49.663Z,99193.63
2022-12-23T18:56:37.322Z,99197.38
2022-12-23T18:59:29.828Z,99200.72
2022-12-23T19:02:19.378Z,99205.72
2022-12-23T19:05:08.193Z,99202.38
2022-12-23T19:07:57.437Z,99213.22
2022-12-23T19:10:48.174Z,99209.09
2022-12-23T19:13:35.913Z,99228.50
2022-12-23T19:16:23.690Z,99213.03
2022-12-23T19:19:13.046Z,99226.19
2022-12-23T19:22:02.046Z,99228.25
2022-12-23T19:25:04.612Z,99234.09
2022-12-23T19:27:53.628Z,99236.63
2022-12-23T19:30:42.807Z,99235.34
2022-12-23T19:33:30.407Z,99234.50
2022-12-23T19:36:22.826Z,99242.66
2022-12-23T19:39:16.686Z,99247.09
2022-12-23T19:42:05.906Z,99260.22
2022-12-23T19:44:53.777Z,99272.94
2022-12-23T19:47:41.695Z,99273.38
2022-12-23T19:50:30.786Z,99282.56
2022-12-23T19:53:19.767Z,99275.06
2022-12-23T19:56:10.191Z,99279.84
2022-12-23T19:58:57.816Z,99281.72
2022-12-23T20:01:47.292Z,99280.50
2022-12-23T20:04:36.187Z,99279.84
2022-12-23T20:07:23.836Z,99288.41
2022-12-23T20:10:13.517Z,99302.19
2022-12-23T20:13:01.263Z,99290.47
2022-12-23T20:15:49.044Z,99305.09
2022-12-23T20:18:37.124Z,99282.75
2022-12-23T20:21:25.449Z,99288.97
2022-12-23T20:24:13.241Z,99305.09
2022-12-23T20:27:05.096Z,99310.75
2022-12-23T20:29:55.486Z,99308.44
2022-12-23T20:32:43.408Z,99311.75
2022-12-23T20:35:32.296Z,99306.34
2022-12-23T20:38:20.126Z,99296.34
2022-12-23T20:41:08.167Z,99304.09
2022-12-23T20:44:31.741Z,99310.75
2022-12-23T20:47:04.781Z,99313.47
2022-12-23T20:49:55.843Z,99313.22
2022-12-23T20:52:43.539Z,99320.13
2022-12-23T20:55:33.179Z,99331.16
2022-12-23T20:58:41.136Z,99329.50
2022-12-23T21:01:32.378Z,99334.31
2022-12-23T21:04:20.720Z,99335.56
2022-12-23T21:07:08.289Z,99352.47
2022-12-23T21:09:55.977Z,99355.84
2022-12-23T21:12:43.380Z,99341.44
2022-12-23T21:15:32.946Z,99353.94
2022-12-23T21:18:22.003Z,99351.88
2022-12-23T21:21:09.579Z,99359.41
2022-12-23T21:24:00.487Z,99364.03
2022-12-23T21:26:55.570Z,99369.44
2022-12-23T21:29:44.411Z,99364.25
2022-12-23T21:32:32.912Z,99369.03
2022-12-23T21:35:22.126Z,99363.41
2022-12-23T21:38:09.572Z,99374.06
2022-12-23T21:41:01.111Z,99369.44
2022-12-23T21:43:48.598Z,99374.47
2022-12-23T21:46:36.287Z,99376.16
2022-12-23T21:49:24.251Z,99383.50
2022-12-23T21:52:13.235Z,99400.84
2022-12-23T21:55:01.115Z,99398.56
2022-12-23T21:57:48.873Z,99403.53
2022-12-23T22:00:36.370Z,99403.97
2022-12-23T22:03:24.075Z,99412.53
2022-12-23T22:06:14.823Z,99419.66
2022-12-23T22:09:04.413Z,99426.75
2022-12-23T22:11:52.034Z,99430.72
2022-12-23T22:14:39.889Z,99430.94
2022-12-23T22:17:27.278Z,99434.72
2022-12-23T22:20:14.723Z,99438.88
2022-12-23T22:23:03.688Z,99438.47
2022-12-23T22:26:25.631Z,99427.38
2022-12-23T22:29:14.167Z,99427.59
2022-12-23T22:32:01.465Z,99441.38
2022-12-23T22:34:48.933Z,99431.72
2022-12-23T22:37:36.684Z,99443.22
2022-12-23T22:40:24.624Z,99446.16
2022-12-23T22:43:13.713Z,99435.47
2022-12-23T22:46:03.048Z,99430.66
2022-12-23T22:48:50.811Z,99447.41
2022-12-23T22:51:38.275Z,99446.97
2022-12-23T22:54:25.958Z,99455.53
2022-12-23T22:57:14.389Z,99450.94
2022-12-23T23:00:09.641Z,99432.94
2022-12-23T23:02:59.336Z,99442.13
2022-12-23T23:05:56.146Z,99452.38
2022-12-23T23:08:44.568Z,99455.09
2022-12-23T23:11:31.957Z,99459.28
2022-12-23T23:14:20.092Z,99464.31
2022-12-23T23:17:09.496Z,99470.16
2022-12-23T23:19:57.363Z,99468.91
2022-12-23T23:22:44.783Z,99470.34
2022-12-23T23:25:32.517Z,99469.66
2022-12-23T23:28:20.412Z,99470.91
2022-12-23T23:34:18.292Z,99483.22
2022-12-23T23:37:06.147Z,99485.16
2022-12-23T23:39:53.780Z,99493.50
2022-12-23T23:42:41.174Z,99486.34
2022-12-23T23:45:30.598Z,99488.22
2022-12-23T23:48:19.414Z,99506.47
2022-12-23T23:51:08.905Z,99509.34
2022-12-23T23:53:58.758Z,99520.50
2022-12-23T23:56:46.596Z,99511.50
2022-12-23T23:59:34.514Z,99521.13
